sensor_id;sensor_type;location;lat;lon;timestamp;P1;durP1;ratioP1;P2;durP2;ratioP2
3155;SDS011;1588;50.892;7.082;2022-12-31T00:00:52;0.90;;;0.70;;
3155;SDS011;1588;50.892;7.082;2022-12-31T00:05:57;1.23;;;0.80;;
3155;SDS011;1588;50.892;7.082;2022-12-31T00:10:59;1.60;;;0.90;;
3155;SDS011;1588;50.892;7.082;2022-12-31T00:16:06;1.23;;;0.80;;
3155;SDS011;1588;50.892;7.082;2022-12-31T00:21:15;1.97;;;0.80;;
3155;SDS011;1588;50.892;7.082;2022-12-31T00:26:26;0.90;;;0.70;;
3155;SDS011;1588;50.892;7.082;2022-12-31T00:31:33;1.03;;;0.80;;
3155;SDS011;1588;50.892;7.082;2022-12-31T00:36:42;0.80;;;0.50;;
3155;SDS011;1588;50.892;7.082;2022-12-31T00:41:45;1.17;;;0.67;;
3155;SDS011;1588;50.892;7.082;2022-12-31T00:46:48;0.80;;;0.67;;
3155;SDS011;1588;50.892;7.082;2022-12-31T00:51:53;1.23;;;0.73;;
3155;SDS011;1588;50.892;7.082;2022-12-31T00:56:56;0.90;;;0.60;;
3155;SDS011;1588;50.892;7.082;2022-12-31T01:02:03;1.10;;;0.77;;
3155;SDS011;1588;50.892;7.082;2022-12-31T01:07:09;2.00;;;0.90;;
3155;SDS011;1588;50.892;7.082;2022-12-31T01:12:15;2.17;;;0.80;;
3155;SDS011;1588;50.892;7.082;2022-12-31T01:17:17;0.80;;;0.57;;
3155;SDS011;1588;50.892;7.082;2022-12-31T01:22:21;0.83;;;0.60;;
3155;SDS011;1588;50.892;7.082;2022-12-31T01:27:25;0.70;;;0.60;;
3155;SDS011;1588;50.892;7.082;2022-12-31T01:32:27;0.67;;;0.50;;
3155;SDS011;1588;50.892;7.082;2022-12-31T01:37:31;1.00;;;0.60;;
3155;SDS011;1588;50.892;7.082;2022-12-31T01:42:34;0.80;;;0.53;;
3155;SDS011;1588;50.892;7.082;2022-12-31T01:47:39;0.70;;;0.50;;
3155;SDS011;1588;50.892;7.082;2022-12-31T01:52:46;0.67;;;0.50;;
3155;SDS011;1588;50.892;7.082;2022-12-31T01:57:52;0.70;;;0.50;;
3155;SDS011;1588;50.892;7.082;2022-12-31T02:02:58;1.00;;;0.50;;
3155;SDS011;1588;50.892;7.082;2022-12-31T02:08:03;1.00;;;0.50;;
3155;SDS011;1588;50.892;7.082;2022-12-31T02:13:06;5.17;;;0.53;;
3155;SDS011;1588;50.892;7.082;2022-12-31T02:18:10;1.17;;;0.50;;
3155;SDS011;1588;50.892;7.082;2022-12-31T02:23:28;1.17;;;0.60;;
3155;SDS011;1588;50.892;7.082;2022-12-31T02:28:55;0.77;;;0.60;;
3155;SDS011;1588;50.892;7.082;2022-12-31T02:34:17;0.60;;;0.40;;
3155;SDS011;1588;50.892;7.082;2022-12-31T02:39:26;0.80;;;0.40;;
3155;SDS011;1588;50.892;7.082;2022-12-31T02:44:31;3.23;;;0.50;;
3155;SDS011;1588;50.892;7.082;2022-12-31T02:49:39;0.60;;;0.40;;
3155;SDS011;1588;50.892;7.082;2022-12-31T02:54:49;1.00;;;0.50;;
3155;SDS011;1588;50.892;7.082;2022-12-31T03:00:01;0.97;;;0.50;;
3155;SDS011;1588;50.892;7.082;2022-12-31T03:05:26;0.60;;;0.40;;
3155;SDS011;1588;50.892;7.082;2022-12-31T03:10:40;0.70;;;0.40;;
3155;SDS011;1588;50.892;7.082;2022-12-31T03:15:43;0.60;;;0.50;;
3155;SDS011;1588;50.892;7.082;2022-12-31T03:20:47;0.60;;;0.43;;
3155;SDS011;1588;50.892;7.082;2022-12-31T03:26:09;1.43;;;0.40;;
3155;SDS011;1588;50.892;7.082;2022-12-31T03:31:13;0.70;;;0.50;;
3155;SDS011;1588;50.892;7.082;2022-12-31T03:36:17;0.70;;;0.50;;
3155;SDS011;1588;50.892;7.082;2022-12-31T03:41:19;0.60;;;0.40;;
3155;SDS011;1588;50.892;7.082;2022-12-31T03:46:22;0.93;;;0.50;;
3155;SDS011;1588;50.892;7.082;2022-12-31T03:51:26;0.60;;;0.40;;
3155;SDS011;1588;50.892;7.082;2022-12-31T03:56:28;0.60;;;0.40;;
3155;SDS011;1588;50.892;7.082;2022-12-31T04:01:33;0.90;;;0.50;;
3155;SDS011;1588;50.892;7.082;2022-12-31T04:06:37;0.60;;;0.40;;
3155;SDS011;1588;50.892;7.082;2022-12-31T04:11:40;1.37;;;0.50;;
3155;SDS011;1588;50.892;7.082;2022-12-31T04:16:42;0.80;;;0.50;;
3155;SDS011;1588;50.892;7.082;2022-12-31T04:21:47;0.60;;;0.40;;
3155;SDS011;1588;50.892;7.082;2022-12-31T04:26:49;0.83;;;0.50;;
3155;SDS011;1588;50.892;7.082;2022-12-31T04:31:52;3.23;;;0.40;;
3155;SDS011;1588;50.892;7.082;2022-12-31T04:37:05;0.60;;;0.40;;
3155;SDS011;1588;50.892;7.082;2022-12-31T04:42:08;0.90;;;0.60;;
3155;SDS011;1588;50.892;7.082;2022-12-31T04:47:10;0.60;;;0.40;;
3155;SDS011;1588;50.892;7.082;2022-12-31T04:52:14;0.90;;;0.50;;
3155;SDS011;1588;50.892;7.082;2022-12-31T04:57:16;0.90;;;0.50;;
3155;SDS011;1588;50.892;7.082;2022-12-31T05:02:19;1.53;;;0.57;;
3155;SDS011;1588;50.892;7.082;2022-12-31T05:07:23;0.60;;;0.50;;
3155;SDS011;1588;50.892;7.082;2022-12-31T05:12:26;0.97;;;0.50;;
3155;SDS011;1588;50.892;7.082;2022-12-31T05:17:28;0.60;;;0.50;;
3155;SDS011;1588;50.892;7.082;2022-12-31T05:22:32;2.07;;;0.70;;
3155;SDS011;1588;50.892;7.082;2022-12-31T05:27:34;1.00;;;0.50;;
3155;SDS011;1588;50.892;7.082;2022-12-31T05:32:38;0.70;;;0.50;;
3155;SDS011;1588;50.892;7.082;2022-12-31T05:37:42;0.90;;;0.60;;
3155;SDS011;1588;50.892;7.082;2022-12-31T05:42:45;1.13;;;0.60;;
3155;SDS011;1588;50.892;7.082;2022-12-31T05:47:48;1.50;;;0.83;;
3155;SDS011;1588;50.892;7.082;2022-12-31T05:52:52;3.63;;;0.80;;
3155;SDS011;1588;50.892;7.082;2022-12-31T05:57:54;0.80;;;0.50;;
3155;SDS011;1588;50.892;7.082;2022-12-31T06:02:57;2.70;;;0.60;;
3155;SDS011;1588;50.892;7.082;2022-12-31T06:08:00;1.10;;;0.70;;
3155;SDS011;1588;50.892;7.082;2022-12-31T06:13:03;1.43;;;0.70;;
3155;SDS011;1588;50.892;7.082;2022-12-31T06:18:08;0.90;;;0.60;;
3155;SDS011;1588;50.892;7.082;2022-12-31T06:23:12;0.80;;;0.60;;
3155;SDS011;1588;50.892;7.082;2022-12-31T06:28:15;1.00;;;0.60;;
3155;SDS011;1588;50.892;7.082;2022-12-31T06:33:18;2.10;;;0.83;;
3155;SDS011;1588;50.892;7.082;2022-12-31T06:38:21;0.90;;;0.70;;
3155;SDS011;1588;50.892;7.082;2022-12-31T06:43:24;1.23;;;0.80;;
3155;SDS011;1588;50.892;7.082;2022-12-31T06:48:26;1.50;;;0.60;;
3155;SDS011;1588;50.892;7.082;2022-12-31T06:53:30;1.10;;;0.67;;
3155;SDS011;1588;50.892;7.082;2022-12-31T06:58:34;1.57;;;0.70;;
3155;SDS011;1588;50.892;7.082;2022-12-31T07:03:37;1.90;;;0.70;;
3155;SDS011;1588;50.892;7.082;2022-12-31T07:08:47;2.00;;;0.70;;
3155;SDS011;1588;50.892;7.082;2022-12-31T07:14:02;5.90;;;0.70;;
3155;SDS011;1588;50.892;7.082;2022-12-31T07:19:15;1.10;;;0.70;;
3155;SDS011;1588;50.892;7.082;2022-12-31T07:24:26;1.80;;;0.80;;
3155;SDS011;1588;50.892;7.082;2022-12-31T07:29:31;1.33;;;0.70;;
3155;SDS011;1588;50.892;7.082;2022-12-31T07:34:47;2.63;;;0.90;;
3155;SDS011;1588;50.892;7.082;2022-12-31T07:39:58;1.40;;;0.87;;
3155;SDS011;1588;50.892;7.082;2022-12-31T07:45:10;2.03;;;0.70;;
3155;SDS011;1588;50.892;7.082;2022-12-31T07:50:18;6.03;;;0.83;;
3155;SDS011;1588;50.892;7.082;2022-12-31T07:55:23;1.20;;;0.70;;
3155;SDS011;1588;50.892;7.082;2022-12-31T08:00:25;0.80;;;0.60;;
3155;SDS011;1588;50.892;7.082;2022-12-31T08:05:31;3.27;;;1.10;;
3155;SDS011;1588;50.892;7.082;2022-12-31T08:10:38;1.70;;;0.70;;
3155;SDS011;1588;50.892;7.082;2022-12-31T08:15:47;3.00;;;0.87;;
3155;SDS011;1588;50.892;7.082;2022-12-31T08:20:54;1.17;;;0.80;;
3155;SDS011;1588;50.892;7.082;2022-12-31T08:26:08;1.50;;;0.73;;
3155;SDS011;1588;50.892;7.082;2022-12-31T08:31:20;1.10;;;0.83;;
3155;SDS011;1588;50.892;7.082;2022-12-31T08:36:27;0.70;;;0.60;;
3155;SDS011;1588;50.892;7.082;2022-12-31T08:41:37;2.73;;;0.70;;
3155;SDS011;1588;50.892;7.082;2022-12-31T08:46:46;1.23;;;1.00;;
3155;SDS011;1588;50.892;7.082;2022-12-31T08:51:55;1.17;;;0.80;;
3155;SDS011;1588;50.892;7.082;2022-12-31T08:57:04;2.53;;;0.93;;
3155;SDS011;1588;50.892;7.082;2022-12-31T09:02:18;1.70;;;0.80;;
3155;SDS011;1588;50.892;7.082;2022-12-31T09:07:42;1.80;;;0.97;;
3155;SDS011;1588;50.892;7.082;2022-12-31T09:12:54;3.77;;;1.00;;
3155;SDS011;1588;50.892;7.082;2022-12-31T09:18:04;1.57;;;0.80;;
3155;SDS011;1588;50.892;7.082;2022-12-31T09:23:09;0.97;;;0.87;;
3155;SDS011;1588;50.892;7.082;2022-12-31T09:28:15;1.03;;;0.80;;
3155;SDS011;1588;50.892;7.082;2022-12-31T09:33:28;1.73;;;0.90;;
3155;SDS011;1588;50.892;7.082;2022-12-31T09:38:39;8.63;;;1.33;;
3155;SDS011;1588;50.892;7.082;2022-12-31T09:44:22;3.77;;;1.20;;
3155;SDS011;1588;50.892;7.082;2022-12-31T09:55:47;6.60;;;1.27;;
3155;SDS011;1588;50.892;7.082;2022-12-31T10:00:57;2.10;;;0.80;;
3155;SDS011;1588;50.892;7.082;2022-12-31T10:06:11;1.20;;;0.90;;
3155;SDS011;1588;50.892;7.082;2022-12-31T10:11:21;7.00;;;1.40;;
3155;SDS011;1588;50.892;7.082;2022-12-31T10:16:37;4.93;;;1.33;;
3155;SDS011;1588;50.892;7.082;2022-12-31T10:22:05;2.97;;;1.27;;
3155;SDS011;1588;50.892;7.082;2022-12-31T10:27:25;1.60;;;0.90;;
3155;SDS011;1588;50.892;7.082;2022-12-31T10:32:39;2.37;;;1.10;;
3155;SDS011;1588;50.892;7.082;2022-12-31T10:37:47;4.33;;;1.03;;
3155;SDS011;1588;50.892;7.082;2022-12-31T10:43:04;1.90;;;0.90;;
3155;SDS011;1588;50.892;7.082;2022-12-31T10:48:38;1.37;;;1.00;;
3155;SDS011;1588;50.892;7.082;2022-12-31T10:53:59;2.67;;;1.00;;
3155;SDS011;1588;50.892;7.082;2022-12-31T10:59:36;3.20;;;1.03;;
3155;SDS011;1588;50.892;7.082;2022-12-31T11:05:18;2.93;;;0.90;;
3155;SDS011;1588;50.892;7.082;2022-12-31T11:16:07;3.10;;;1.00;;
3155;SDS011;1588;50.892;7.082;2022-12-31T11:21:51;2.50;;;1.10;;
3155;SDS011;1588;50.892;7.082;2022-12-31T11:27:29;2.30;;;1.00;;
3155;SDS011;1588;50.892;7.082;2022-12-31T11:32:46;1.40;;;0.90;;
3155;SDS011;1588;50.892;7.082;2022-12-31T11:38:08;3.33;;;1.10;;
3155;SDS011;1588;50.892;7.082;2022-12-31T11:43:20;2.70;;;1.10;;
3155;SDS011;1588;50.892;7.082;2022-12-31T11:48:33;3.47;;;1.10;;
3155;SDS011;1588;50.892;7.082;2022-12-31T11:53:49;3.70;;;1.37;;
3155;SDS011;1588;50.892;7.082;2022-12-31T11:59:20;2.63;;;0.90;;
3155;SDS011;1588;50.892;7.082;2022-12-31T12:04:23;5.43;;;1.10;;
3155;SDS011;1588;50.892;7.082;2022-12-31T12:09:30;2.10;;;1.13;;
3155;SDS011;1588;50.892;7.082;2022-12-31T12:14:35;3.43;;;0.90;;
3155;SDS011;1588;50.892;7.082;2022-12-31T12:19:41;2.07;;;1.13;;
3155;SDS011;1588;50.892;7.082;2022-12-31T12:24:52;3.93;;;1.20;;
3155;SDS011;1588;50.892;7.082;2022-12-31T12:29:56;6.27;;;1.20;;
3155;SDS011;1588;50.892;7.082;2022-12-31T12:34:59;5.07;;;1.60;;
3155;SDS011;1588;50.892;7.082;2022-12-31T12:40:03;17.33;;;1.40;;
3155;SDS011;1588;50.892;7.082;2022-12-31T12:45:13;2.23;;;1.20;;
3155;SDS011;1588;50.892;7.082;2022-12-31T12:50:17;3.03;;;1.20;;
3155;SDS011;1588;50.892;7.082;2022-12-31T12:55:24;2.20;;;1.33;;
3155;SDS011;1588;50.892;7.082;2022-12-31T13:00:36;3.00;;;1.37;;
3155;SDS011;1588;50.892;7.082;2022-12-31T13:05:47;4.23;;;1.30;;
3155;SDS011;1588;50.892;7.082;2022-12-31T13:11:02;9.70;;;1.17;;
3155;SDS011;1588;50.892;7.082;2022-12-31T13:16:18;2.67;;;1.10;;
3155;SDS011;1588;50.892;7.082;2022-12-31T13:21:33;5.03;;;1.10;;
3155;SDS011;1588;50.892;7.082;2022-12-31T13:26:44;7.33;;;1.50;;
3155;SDS011;1588;50.892;7.082;2022-12-31T13:31:56;2.37;;;1.30;;
3155;SDS011;1588;50.892;7.082;2022-12-31T13:37:17;1.73;;;0.97;;
3155;SDS011;1588;50.892;7.082;2022-12-31T13:42:30;6.43;;;1.23;;
3155;SDS011;1588;50.892;7.082;2022-12-31T13:47:41;7.00;;;1.17;;
3155;SDS011;1588;50.892;7.082;2022-12-31T13:52:47;4.33;;;1.40;;
3155;SDS011;1588;50.892;7.082;2022-12-31T13:57:57;2.07;;;1.27;;
3155;SDS011;1588;50.892;7.082;2022-12-31T14:03:09;2.20;;;1.17;;
3155;SDS011;1588;50.892;7.082;2022-12-31T14:08:20;5.93;;;1.40;;
3155;SDS011;1588;50.892;7.082;2022-12-31T14:13:32;9.10;;;1.40;;
3155;SDS011;1588;50.892;7.082;2022-12-31T14:18:42;4.70;;;1.27;;
3155;SDS011;1588;50.892;7.082;2022-12-31T14:23:55;1.40;;;1.07;;
3155;SDS011;1588;50.892;7.082;2022-12-31T14:29:11;5.13;;;1.90;;
3155;SDS011;1588;50.892;7.082;2022-12-31T14:34:28;2.60;;;1.17;;
3155;SDS011;1588;50.892;7.082;2022-12-31T14:39:43;5.80;;;1.20;;
3155;SDS011;1588;50.892;7.082;2022-12-31T14:45:14;1.40;;;1.00;;
3155;SDS011;1588;50.892;7.082;2022-12-31T14:50:45;1.70;;;0.97;;
3155;SDS011;1588;50.892;7.082;2022-12-31T14:55:57;4.70;;;1.30;;
3155;SDS011;1588;50.892;7.082;2022-12-31T15:01:04;1.60;;;1.30;;
3155;SDS011;1588;50.892;7.082;2022-12-31T15:06:12;2.30;;;1.13;;
3155;SDS011;1588;50.892;7.082;2022-12-31T15:11:43;2.67;;;1.17;;
3155;SDS011;1588;50.892;7.082;2022-12-31T15:17:02;4.77;;;1.40;;
3155;SDS011;1588;50.892;7.082;2022-12-31T15:22:19;3.20;;;1.70;;
3155;SDS011;1588;50.892;7.082;2022-12-31T15:27:35;3.70;;;1.37;;
3155;SDS011;1588;50.892;7.082;2022-12-31T15:32:44;2.80;;;1.33;;
3155;SDS011;1588;50.892;7.082;2022-12-31T15:37:56;2.07;;;1.27;;
3155;SDS011;1588;50.892;7.082;2022-12-31T15:43:00;4.77;;;1.50;;
3155;SDS011;1588;50.892;7.082;2022-12-31T15:48:12;4.50;;;1.40;;
3155;SDS011;1588;50.892;7.082;2022-12-31T15:53:22;2.73;;;1.17;;
3155;SDS011;1588;50.892;7.082;2022-12-31T15:58:29;6.30;;;1.70;;
3155;SDS011;1588;50.892;7.082;2022-12-31T16:03:36;3.80;;;1.70;;
3155;SDS011;1588;50.892;7.082;2022-12-31T16:08:45;4.27;;;1.90;;
3155;SDS011;1588;50.892;7.082;2022-12-31T16:13:51;3.83;;;1.47;;
3155;SDS011;1588;50.892;7.082;2022-12-31T16:18:57;5.03;;;2.20;;
3155;SDS011;1588;50.892;7.082;2022-12-31T16:24:01;4.70;;;1.83;;
3155;SDS011;1588;50.892;7.082;2022-12-31T16:29:10;3.80;;;1.90;;
3155;SDS011;1588;50.892;7.082;2022-12-31T16:34:17;2.97;;;1.50;;
3155;SDS011;1588;50.892;7.082;2022-12-31T16:39:23;6.83;;;3.10;;
3155;SDS011;1588;50.892;7.082;2022-12-31T16:44:28;5.33;;;2.30;;
3155;SDS011;1588;50.892;7.082;2022-12-31T16:49:36;2.77;;;1.60;;
3155;SDS011;1588;50.892;7.082;2022-12-31T16:54:43;5.87;;;1.60;;
3155;SDS011;1588;50.892;7.082;2022-12-31T16:59:59;6.77;;;2.13;;
3155;SDS011;1588;50.892;7.082;2022-12-31T17:05:05;19.70;;;8.17;;
3155;SDS011;1588;50.892;7.082;2022-12-31T17:10:21;2.50;;;1.60;;
3155;SDS011;1588;50.892;7.082;2022-12-31T17:15:29;2.53;;;1.40;;
3155;SDS011;1588;50.892;7.082;2022-12-31T17:20:43;3.00;;;1.63;;
3155;SDS011;1588;50.892;7.082;2022-12-31T17:25:46;7.37;;;2.10;;
3155;SDS011;1588;50.892;7.082;2022-12-31T17:30:49;5.80;;;1.67;;
3155;SDS011;1588;50.892;7.082;2022-12-31T17:35:58;9.53;;;2.47;;
3155;SDS011;1588;50.892;7.082;2022-12-31T17:41:22;5.17;;;1.73;;
3155;SDS011;1588;50.892;7.082;2022-12-31T17:46:26;5.03;;;1.80;;
3155;SDS011;1588;50.892;7.082;2022-12-31T17:51:42;4.83;;;1.87;;
3155;SDS011;1588;50.892;7.082;2022-12-31T17:56:47;7.30;;;1.93;;
3155;SDS011;1588;50.892;7.082;2022-12-31T18:01:50;3.17;;;1.77;;
3155;SDS011;1588;50.892;7.082;2022-12-31T18:06:54;4.60;;;2.00;;
3155;SDS011;1588;50.892;7.082;2022-12-31T18:11:56;11.67;;;3.70;;
3155;SDS011;1588;50.892;7.082;2022-12-31T18:17:01;5.73;;;1.87;;
3155;SDS011;1588;50.892;7.082;2022-12-31T18:22:05;7.27;;;1.90;;
3155;SDS011;1588;50.892;7.082;2022-12-31T18:27:10;6.43;;;2.37;;
3155;SDS011;1588;50.892;7.082;2022-12-31T18:32:18;4.67;;;1.90;;
3155;SDS011;1588;50.892;7.082;2022-12-31T18:37:26;11.97;;;1.70;;
3155;SDS011;1588;50.892;7.082;2022-12-31T18:42:44;5.63;;;3.10;;
3155;SDS011;1588;50.892;7.082;2022-12-31T18:48:52;3.43;;;1.90;;
3155;SDS011;1588;50.892;7.082;2022-12-31T18:53:56;5.40;;;2.83;;
3155;SDS011;1588;50.892;7.082;2022-12-31T18:58:58;11.60;;;2.70;;
3155;SDS011;1588;50.892;7.082;2022-12-31T19:04:09;4.07;;;2.23;;
3155;SDS011;1588;50.892;7.082;2022-12-31T19:09:16;8.10;;;3.50;;
3155;SDS011;1588;50.892;7.082;2022-12-31T19:14:22;7.53;;;2.80;;
3155;SDS011;1588;50.892;7.082;2022-12-31T19:19:28;4.47;;;3.27;;
3155;SDS011;1588;50.892;7.082;2022-12-31T19:24:48;5.03;;;2.27;;
3155;SDS011;1588;50.892;7.082;2022-12-31T19:30:14;6.53;;;1.93;;
3155;SDS011;1588;50.892;7.082;2022-12-31T19:35:22;3.60;;;1.70;;
3155;SDS011;1588;50.892;7.082;2022-12-31T19:46:24;5.27;;;2.60;;
3155;SDS011;1588;50.892;7.082;2022-12-31T19:51:31;7.13;;;2.40;;
3155;SDS011;1588;50.892;7.082;2022-12-31T19:56:44;4.63;;;2.30;;
3155;SDS011;1588;50.892;7.082;2022-12-31T20:02:09;5.83;;;2.37;;
3155;SDS011;1588;50.892;7.082;2022-12-31T20:07:18;8.63;;;2.50;;
3155;SDS011;1588;50.892;7.082;2022-12-31T20:12:20;222.07;;;92.53;;
3155;SDS011;1588;50.892;7.082;2022-12-31T20:17:24;12.20;;;3.90;;
3155;SDS011;1588;50.892;7.082;2022-12-31T20:22:33;23.17;;;12.23;;
3155;SDS011;1588;50.892;7.082;2022-12-31T20:27:45;16.83;;;7.97;;
3155;SDS011;1588;50.892;7.082;2022-12-31T20:33:04;24.23;;;11.73;;
3155;SDS011;1588;50.892;7.082;2022-12-31T20:38:07;7.30;;;3.10;;
3155;SDS011;1588;50.892;7.082;2022-12-31T20:43:12;16.73;;;7.07;;
3155;SDS011;1588;50.892;7.082;2022-12-31T20:48:16;88.67;;;36.27;;
3155;SDS011;1588;50.892;7.082;2022-12-31T20:53:19;13.27;;;5.87;;
3155;SDS011;1588;50.892;7.082;2022-12-31T20:58:24;35.20;;;17.67;;
3155;SDS011;1588;50.892;7.082;2022-12-31T21:03:31;14.43;;;3.60;;
3155;SDS011;1588;50.892;7.082;2022-12-31T21:08:49;18.20;;;8.10;;
3155;SDS011;1588;50.892;7.082;2022-12-31T21:14:07;26.37;;;10.77;;
3155;SDS011;1588;50.892;7.082;2022-12-31T21:19:26;19.00;;;11.20;;
3155;SDS011;1588;50.892;7.082;2022-12-31T21:24:28;8.30;;;4.40;;
3155;SDS011;1588;50.892;7.082;2022-12-31T21:36:30;13.20;;;3.40;;
3155;SDS011;1588;50.892;7.082;2022-12-31T21:41:33;7.30;;;3.07;;
3155;SDS011;1588;50.892;7.082;2022-12-31T21:46:55;8.03;;;2.90;;
3155;SDS011;1588;50.892;7.082;2022-12-31T21:52:21;16.40;;;6.37;;
3155;SDS011;1588;50.892;7.082;2022-12-31T21:57:26;33.80;;;15.40;;
3155;SDS011;1588;50.892;7.082;2022-12-31T22:02:29;3.60;;;2.03;;
3155;SDS011;1588;50.892;7.082;2022-12-31T22:07:46;8.93;;;3.07;;
3155;SDS011;1588;50.892;7.082;2022-12-31T22:12:52;30.17;;;13.07;;
3155;SDS011;1588;50.892;7.082;2022-12-31T22:17:54;44.07;;;21.10;;
3155;SDS011;1588;50.892;7.082;2022-12-31T22:22:58;7.67;;;2.90;;
3155;SDS011;1588;50.892;7.082;2022-12-31T22:28:13;13.33;;;7.57;;
3155;SDS011;1588;50.892;7.082;2022-12-31T22:33:15;10.60;;;4.50;;
3155;SDS011;1588;50.892;7.082;2022-12-31T22:38:19;11.00;;;4.97;;
3155;SDS011;1588;50.892;7.082;2022-12-31T22:43:21;5.57;;;3.10;;
3155;SDS011;1588;50.892;7.082;2022-12-31T22:48:24;14.60;;;5.50;;
3155;SDS011;1588;50.892;7.082;2022-12-31T22:53:29;16.83;;;7.07;;
3155;SDS011;1588;50.892;7.082;2022-12-31T22:58:32;56.33;;;23.23;;
3155;SDS011;1588;50.892;7.082;2022-12-31T23:03:39;75.80;;;32.20;;
3155;SDS011;1588;50.892;7.082;2022-12-31T23:08:58;235.57;;;103.50;;
3155;SDS011;1588;50.892;7.082;2022-12-31T23:14:18;158.40;;;68.67;;
3155;SDS011;1588;50.892;7.082;2022-12-31T23:19:38;154.80;;;65.23;;
3155;SDS011;1588;50.892;7.082;2022-12-31T23:25:07;124.17;;;54.33;;
3155;SDS011;1588;50.892;7.082;2022-12-31T23:30:14;108.37;;;44.97;;
3155;SDS011;1588;50.892;7.082;2022-12-31T23:35:34;55.70;;;27.00;;
3155;SDS011;1588;50.892;7.082;2022-12-31T23:40:48;54.13;;;25.30;;
3155;SDS011;1588;50.892;7.082;2022-12-31T23:45:52;58.93;;;26.23;;
3155;SDS011;1588;50.892;7.082;2022-12-31T23:51:14;59.73;;;26.30;;
3155;SDS011;1588;50.892;7.082;2022-12-31T23:56:18;41.30;;;21.47;;
